createdAt,value
2022-12-17T00:00:41.085Z,53.33
2022-12-17T00:06:24.292Z,55.08
2022-12-17T00:12:04.456Z,60.42
2022-12-17T00:17:46.245Z,50.53
2022-12-17T00:23:32.372Z,45.65
2022-12-17T00:29:13.351Z,45.03
2022-12-17T00:34:59.402Z,49.70
2022-12-17T00:40:41.407Z,42.67
2022-12-17T00:46:23.128Z,54.40
2022-12-17T00:52:06.109Z,51.42
2022-12-17T00:57:48.335Z,54.80
2022-12-17T01:03:30.851Z,49.22
2022-12-17T01:09:11.544Z,74.40
2022-12-17T01:14:52.621Z,41.13
2022-12-17T01:20:36.525Z,44.97
2022-12-17T01:26:17.716Z,34.47
2022-12-17T01:32:02.201Z,48.40
2022-12-17T01:37:47.286Z,39.78
2022-12-17T01:43:31.396Z,33.08
2022-12-17T01:49:13.592Z,32.85
2022-12-17T01:54:55.751Z,30.13
2022-12-17T02:00:37.830Z,35.10
2022-12-17T02:06:32.523Z,41.72
2022-12-17T02:12:23.033Z,35.72
2022-12-17T02:24:02.225Z,37.55
2022-12-17T02:29:48.020Z,52.58
2022-12-17T02:35:33.156Z,71.03
2022-12-17T02:41:14.931Z,61.50
2022-12-17T02:46:59.708Z,64.07
2022-12-17T02:52:41.047Z,51.90
2022-12-17T02:58:21.999Z,48.35
2022-12-17T03:04:04.179Z,51.67
2022-12-17T03:09:44.956Z,40.88
2022-12-17T03:15:26.334Z,42.75
2022-12-17T03:21:12.791Z,39.78
2022-12-17T03:26:57.585Z,45.45
2022-12-17T03:32:38.692Z,27.95
2022-12-17T03:38:25.676Z,31.80
2022-12-17T03:44:06.514Z,34.75
2022-12-17T03:49:52.747Z,30.92
2022-12-17T03:55:41.696Z,34.65
2022-12-17T04:01:22.563Z,45.03
2022-12-17T04:07:03.274Z,41.88
2022-12-17T04:12:42.686Z,56.17
2022-12-17T04:18:24.064Z,47.85
2022-12-17T04:24:10.975Z,53.58
2022-12-17T04:29:59.003Z,48.92
2022-12-17T04:35:45.758Z,34.45
2022-12-17T04:41:33.003Z,33.80
2022-12-17T04:47:20.996Z,39.72
2022-12-17T04:53:07.821Z,34.17
2022-12-17T04:58:57.177Z,44.20
2022-12-17T05:04:44.714Z,43.80
2022-12-17T05:10:31.905Z,36.55
2022-12-17T05:16:19.122Z,37.17
2022-12-17T05:22:07.102Z,36.00
2022-12-17T05:27:53.941Z,37.03
2022-12-17T05:33:40.728Z,49.97
2022-12-17T06:12:20.597Z,19.83
2022-12-17T06:18:16.438Z,20.38
2022-12-17T06:24:03.131Z,20.35
2022-12-17T06:29:50.773Z,23.02
2022-12-17T06:35:37.406Z,22.35
2022-12-17T06:41:23.469Z,21.58
2022-12-17T06:47:12.134Z,17.42
2022-12-17T06:52:58.130Z,22.77
2022-12-17T06:58:59.119Z,16.80
2022-12-17T07:04:46.914Z,17.25
2022-12-17T07:10:45.781Z,16.85
2022-12-17T07:16:45.191Z,14.45
2022-12-17T07:22:32.717Z,16.02
2022-12-17T07:28:19.858Z,15.77
2022-12-17T07:34:43.558Z,22.95
2022-12-17T07:40:30.525Z,15.73
2022-12-17T07:46:19.681Z,21.63
2022-12-17T07:52:06.984Z,18.17
2022-12-17T07:57:54.045Z,17.95
2022-12-17T08:03:43.157Z,21.50
2022-12-17T08:09:30.883Z,28.20
2022-12-17T08:15:17.743Z,18.02
2022-12-17T08:21:06.007Z,22.65
2022-12-17T08:26:54.065Z,19.35
2022-12-17T08:32:41.432Z,19.73
2022-12-17T08:38:27.867Z,23.48
2022-12-17T08:44:16.833Z,19.75
2022-12-17T08:50:04.027Z,17.23
2022-12-17T08:55:50.993Z,27.38
2022-12-17T09:01:39.404Z,24.40
2022-12-17T09:07:25.707Z,25.45
2022-12-17T09:13:11.723Z,25.27
2022-12-17T09:18:59.483Z,31.75
2022-12-17T09:24:45.900Z,30.88
2022-12-17T11:48:05.569Z,21.00
2022-12-17T11:54:05.713Z,22.08
2022-12-17T11:59:57.011Z,22.08
2022-12-17T12:05:57.231Z,25.63
2022-12-17T12:11:49.905Z,24.95
2022-12-17T12:17:56.875Z,31.92
2022-12-17T12:23:56.300Z,27.52
2022-12-17T12:29:46.799Z,31.88
2022-12-17T12:35:34.233Z,33.85
2022-12-17T12:41:23.865Z,33.60
2022-12-17T12:47:11.973Z,37.03
2022-12-17T12:52:55.550Z,31.42
2022-12-17T12:58:46.326Z,40.15
2022-12-17T13:04:46.443Z,32.78
2022-12-17T13:11:29.234Z,30.75
2022-12-17T13:17:59.381Z,33.60
2022-12-17T13:23:34.608Z,26.85
2022-12-17T13:30:13.014Z,25.80
2022-12-17T13:36:47.205Z,32.20
2022-12-17T13:43:18.538Z,25.33
2022-12-17T13:50:24.574Z,38.67
2022-12-17T13:56:41.596Z,36.55
2022-12-17T14:03:37.378Z,42.72
2022-12-17T14:10:16.254Z,42.83
2022-12-17T14:16:51.004Z,36.75
2022-12-17T14:23:24.855Z,41.42
2022-12-17T14:29:52.841Z,30.10
2022-12-17T14:36:25.356Z,33.40
2022-12-17T14:42:59.777Z,26.65
2022-12-17T14:49:27.105Z,22.30
2022-12-17T14:55:56.172Z,26.80
2022-12-17T15:02:26.419Z,23.50
2022-12-17T15:08:55.272Z,21.55
2022-12-17T15:15:23.790Z,26.98
2022-12-17T15:21:51.319Z,26.20
2022-12-17T15:28:19.258Z,28.77
2022-12-17T15:34:47.951Z,24.23
2022-12-17T15:41:32.541Z,18.35
2022-12-17T15:48:00.463Z,25.30
2022-12-17T15:54:30.023Z,17.95
2022-12-17T16:00:57.264Z,21.45
2022-12-17T16:07:24.935Z,23.17
2022-12-17T16:13:55.071Z,21.65
2022-12-17T16:20:22.145Z,27.73
2022-12-17T16:26:59.402Z,20.65
2022-12-17T16:33:35.802Z,21.40
2022-12-17T16:40:04.139Z,24.77
2022-12-17T16:46:32.757Z,27.50
2022-12-17T16:53:02.544Z,24.88
2022-12-17T20:06:05.330Z,21.83
2022-12-17T20:11:35.535Z,22.70
2022-12-17T20:17:06.150Z,23.95
2022-12-17T20:22:36.902Z,26.40
2022-12-17T20:28:06.242Z,20.77
2022-12-17T20:33:35.109Z,26.25
2022-12-17T20:39:05.926Z,19.15
2022-12-17T20:44:35.255Z,24.30
2022-12-17T20:50:04.428Z,19.08
2022-12-17T20:55:34.433Z,34.60
2022-12-17T21:01:04.807Z,23.00
2022-12-17T21:06:38.443Z,31.23
2022-12-17T21:12:09.659Z,20.63
2022-12-17T21:17:38.464Z,18.42
2022-12-17T21:23:07.325Z,24.95
2022-12-17T21:28:39.982Z,25.05
2022-12-17T21:34:12.650Z,25.33
2022-12-17T21:39:41.126Z,27.27
2022-12-17T21:45:11.970Z,28.50
2022-12-17T21:50:42.246Z,28.80
2022-12-17T21:56:13.122Z,42.00
2022-12-17T22:01:44.142Z,23.98
2022-12-17T22:07:17.282Z,36.13
2022-12-17T22:13:07.894Z,31.33
2022-12-17T22:18:46.160Z,28.67
2022-12-17T22:24:16.235Z,30.48
2022-12-17T22:30:03.014Z,31.73
2022-12-17T22:36:51.840Z,29.13
2022-12-17T22:44:46.623Z,15.25
2022-12-17T22:47:33.367Z,16.50
2022-12-17T22:53:04.091Z,14.07
2022-12-17T22:58:33.339Z,16.67
2022-12-17T23:04:03.887Z,15.45
2022-12-17T23:09:34.898Z,11.40
2022-12-17T23:15:04.375Z,11.52
2022-12-17T23:20:35.388Z,11.13
2022-12-17T23:26:12.016Z,10.13
2022-12-17T23:31:41.332Z,11.43
2022-12-17T23:37:10.369Z,12.20
2022-12-17T23:42:40.596Z,11.70
2022-12-17T23:48:09.188Z,22.63
2022-12-17T23:59:10.990Z,12.87
